createdAt,value
2018-03-23T00:00:46.894Z,49.40
2018-03-23T00:01:46.860Z,50.30
2018-03-23T00:03:39.809Z,50.90
2018-03-23T00:04:39.755Z,50.90
2018-03-23T00:06:32.735Z,49.80
2018-03-23T00:07:32.786Z,51.30
2018-03-23T00:09:25.758Z,51.60
2018-03-23T00:10:25.655Z,50.80
2018-03-23T00:12:18.712Z,50.90
2018-03-23T00:13:18.611Z,51.40
2018-03-23T00:15:11.778Z,52.50
2018-03-23T00:16:11.571Z,50.10
2018-03-23T00:18:04.733Z,51.70
2018-03-23T00:19:04.532Z,50.10
2018-03-23T00:20:57.585Z,49.40
2018-03-23T00:21:57.482Z,49.60
2018-03-23T00:23:50.638Z,49.70
2018-03-23T00:24:50.433Z,49.80
2018-03-23T00:26:43.598Z,49.90
2018-03-23T00:27:43.393Z,51.80
2018-03-23T00:29:36.556Z,49.40
2018-03-23T00:30:36.342Z,49.80
2018-03-23T00:32:29.508Z,49.70
2018-03-23T00:33:29.301Z,49.40
2018-03-23T00:35:22.464Z,49.90
2018-03-23T00:36:22.256Z,48.00
2018-03-23T00:38:15.419Z,49.70
2018-03-23T00:39:15.208Z,49.00
2018-03-23T00:41:08.373Z,48.60
2018-03-23T00:42:08.166Z,48.40
2018-03-23T00:44:01.251Z,47.10
2018-03-23T00:45:01.131Z,47.20
2018-03-23T00:46:54.283Z,46.40
2018-03-23T00:47:54.077Z,46.40
2018-03-23T00:49:47.237Z,46.00
2018-03-23T00:50:47.031Z,46.20
2018-03-23T00:52:40.194Z,47.10
2018-03-23T00:53:39.988Z,46.80
2018-03-23T00:55:32.985Z,44.50
2018-03-23T00:56:32.942Z,46.40
2018-03-23T00:58:26.103Z,45.70
2018-03-23T00:59:25.896Z,45.60
2018-03-23T01:01:19.061Z,47.10
2018-03-23T01:02:18.850Z,44.80
2018-03-23T01:04:12.014Z,45.90
2018-03-23T01:05:11.806Z,45.50
2018-03-23T01:07:04.972Z,46.30
2018-03-23T01:08:04.768Z,45.90
2018-03-23T01:09:57.922Z,46.80
2018-03-23T01:10:57.722Z,47.00
2018-03-23T01:12:50.883Z,45.80
2018-03-23T01:13:50.675Z,45.90
2018-03-23T01:15:43.837Z,44.90
2018-03-23T01:16:43.631Z,43.50
2018-03-23T01:18:36.790Z,43.70
2018-03-23T01:19:36.585Z,43.20
2018-03-23T01:21:29.749Z,42.30
2018-03-23T01:22:29.541Z,42.50
2018-03-23T01:24:22.600Z,42.30
2018-03-23T01:25:22.495Z,42.30
2018-03-23T01:27:15.655Z,42.10
2018-03-23T01:28:15.453Z,42.90
2018-03-23T01:30:08.453Z,44.10
2018-03-23T01:31:08.407Z,42.30
2018-03-23T01:33:01.576Z,43.00
2018-03-23T01:34:01.361Z,43.80
2018-03-23T01:35:54.421Z,43.70
2018-03-23T01:36:54.327Z,43.10
2018-03-23T01:38:47.376Z,46.20
2018-03-23T01:39:47.272Z,46.20
2018-03-23T01:41:40.329Z,48.30
2018-03-23T01:42:40.226Z,48.70
2018-03-23T01:44:33.184Z,49.60
2018-03-23T01:45:33.088Z,51.20
2018-03-23T01:47:26.036Z,54.50
2018-03-23T01:48:25.936Z,56.70
2018-03-23T01:50:18.890Z,55.70
2018-03-23T01:51:18.787Z,56.80
2018-03-23T01:53:11.741Z,60.60
2018-03-23T01:54:11.642Z,60.70
2018-03-23T01:56:05.619Z,59.90
2018-03-23T01:57:04.495Z,63.30
2018-03-23T01:58:57.450Z,63.30
2018-03-23T01:59:57.345Z,63.90
2018-03-23T02:01:50.299Z,64.40
2018-03-23T02:02:50.197Z,64.00
2018-03-23T02:04:43.151Z,64.40
2018-03-23T02:05:43.054Z,64.40
2018-03-23T02:07:36.005Z,66.10
2018-03-23T02:08:35.880Z,66.30
2018-03-23T02:10:28.858Z,65.60
2018-03-23T02:11:28.755Z,65.00
2018-03-23T02:13:21.710Z,66.50
2018-03-23T02:14:21.607Z,65.40
2018-03-23T02:16:14.565Z,65.40
2018-03-23T02:17:14.465Z,66.20
2018-03-23T02:19:07.415Z,62.00
2018-03-23T02:20:07.316Z,64.30
2018-03-23T02:22:00.369Z,64.30
2018-03-23T02:23:00.271Z,64.90
2018-03-23T02:24:53.322Z,65.40
2018-03-23T02:25:53.221Z,65.20
2018-03-23T02:27:46.284Z,63.40
2018-03-23T02:28:46.175Z,65.00
2018-03-23T02:30:39.238Z,63.50
2018-03-23T02:31:39.132Z,63.20
2018-03-23T02:33:32.143Z,62.70
2018-03-23T02:34:32.094Z,62.00
2018-03-23T02:36:25.248Z,62.20
2018-03-23T02:37:25.051Z,61.60
2018-03-23T02:39:18.104Z,62.20
2018-03-23T02:40:17.998Z,61.30
2018-03-23T02:42:11.169Z,60.20
2018-03-23T02:43:10.957Z,62.00
2018-03-23T02:45:04.117Z,60.00
2018-03-23T02:46:03.912Z,60.60
2018-03-23T02:47:57.070Z,58.20
2018-03-23T02:48:56.868Z,59.30
2018-03-23T02:50:50.027Z,57.40
2018-03-23T02:51:49.821Z,58.10
2018-03-23T02:53:42.983Z,57.30
2018-03-23T02:54:42.778Z,57.10
2018-03-23T02:56:35.939Z,56.40
2018-03-23T02:57:35.736Z,55.70
2018-03-23T02:59:28.898Z,55.50
2018-03-23T03:00:28.687Z,55.70
2018-03-23T03:02:21.850Z,54.90
2018-03-23T03:03:21.642Z,56.20
2018-03-23T03:05:14.804Z,54.50
2018-03-23T03:06:14.597Z,55.20
2018-03-23T03:08:07.760Z,55.50
2018-03-23T03:09:07.553Z,54.10
2018-03-23T03:11:00.724Z,54.20
2018-03-23T03:12:00.507Z,54.10
2018-03-23T03:13:53.672Z,57.60
2018-03-23T03:14:53.464Z,56.90
2018-03-23T03:16:46.627Z,58.60
2018-03-23T03:17:46.418Z,57.50
2018-03-23T03:19:39.584Z,58.10
2018-03-23T03:20:39.372Z,60.60
2018-03-23T03:22:32.535Z,59.00
2018-03-23T03:23:32.328Z,59.10
2018-03-23T03:25:25.497Z,58.90
2018-03-23T03:26:25.284Z,57.50
2018-03-23T03:28:18.444Z,59.30
2018-03-23T03:29:18.238Z,55.70
2018-03-23T03:31:11.404Z,56.60
2018-03-23T03:32:11.194Z,54.20
2018-03-23T03:34:04.356Z,54.40
2018-03-23T03:35:04.149Z,52.80
2018-03-23T03:36:57.314Z,52.30
2018-03-23T03:37:57.106Z,52.60
2018-03-23T03:39:50.269Z,52.60
2018-03-23T03:40:50.061Z,52.60
2018-03-23T03:42:43.224Z,53.40
2018-03-23T03:43:43.015Z,53.70
2018-03-23T03:45:36.178Z,53.90
2018-03-23T03:46:35.972Z,54.80
2018-03-23T03:48:29.143Z,54.50
2018-03-23T03:49:28.929Z,55.40
2018-03-23T03:51:21.994Z,55.10
2018-03-23T03:52:21.883Z,55.70
2018-03-23T03:54:14.940Z,51.80
2018-03-23T03:55:14.837Z,50.90
2018-03-23T03:57:07.896Z,52.10
2018-03-23T03:58:07.793Z,50.90
2018-03-23T04:00:00.848Z,50.00
2018-03-23T04:01:00.739Z,48.00
2018-03-23T04:02:53.709Z,46.30
2018-03-23T04:03:53.605Z,45.00
2018-03-23T04:05:46.559Z,43.60
2018-03-23T04:06:46.460Z,44.40
2018-03-23T04:08:39.428Z,43.30
2018-03-23T04:09:39.311Z,42.40
2018-03-23T04:11:32.264Z,41.10
2018-03-23T04:12:32.165Z,40.30
2018-03-23T04:14:25.118Z,40.50
2018-03-23T04:15:25.015Z,40.20
2018-03-23T04:17:18.997Z,39.00
2018-03-23T04:18:17.870Z,39.30
2018-03-23T04:20:10.827Z,37.90
2018-03-23T04:21:10.723Z,38.30
2018-03-23T04:23:03.676Z,37.50
2018-03-23T04:24:03.574Z,37.20
2018-03-23T04:25:56.531Z,36.70
2018-03-23T04:26:56.430Z,37.00
2018-03-23T04:28:49.382Z,36.50
2018-03-23T04:29:49.280Z,37.50
2018-03-23T04:31:42.236Z,35.80
2018-03-23T04:32:42.133Z,36.40
2018-03-23T04:34:35.089Z,36.10
2018-03-23T04:35:34.986Z,36.30
2018-03-23T04:37:27.943Z,35.20
2018-03-23T04:38:27.841Z,35.10
2018-03-23T04:40:20.794Z,33.90
2018-03-23T04:41:20.693Z,33.60
2018-03-23T04:43:13.748Z,34.20
2018-03-23T04:44:13.643Z,33.00
2018-03-23T04:46:06.707Z,32.90
2018-03-23T04:47:06.601Z,32.80
2018-03-23T04:48:59.661Z,32.50
2018-03-23T04:49:59.554Z,31.90
2018-03-23T04:51:52.718Z,31.00
2018-03-23T04:52:52.512Z,31.40
2018-03-23T04:54:45.674Z,32.60
2018-03-23T04:55:45.466Z,31.10
2018-03-23T04:57:38.528Z,30.20
2018-03-23T04:58:38.421Z,31.00
2018-03-23T05:00:31.583Z,29.50
2018-03-23T05:01:31.462Z,30.60
2018-03-23T05:03:24.537Z,29.50
2018-03-23T05:04:24.332Z,28.70
2018-03-23T05:06:17.494Z,29.10
2018-03-23T05:07:17.285Z,28.20
2018-03-23T05:09:10.449Z,28.50
2018-03-23T05:10:10.241Z,27.40
2018-03-23T05:12:03.408Z,27.50
2018-03-23T05:13:03.198Z,27.00
2018-03-23T05:14:56.359Z,26.90
2018-03-23T05:15:56.151Z,26.10
2018-03-23T05:17:49.315Z,27.20
2018-03-23T05:18:49.110Z,28.10
2018-03-23T05:20:42.269Z,26.10
2018-03-23T05:21:42.061Z,25.20
2018-03-23T05:23:35.222Z,24.90
2018-03-23T05:24:35.020Z,25.70
2018-03-23T05:26:28.180Z,25.00
2018-03-23T05:27:27.975Z,25.90
2018-03-23T05:29:21.136Z,24.90
2018-03-23T05:30:20.943Z,24.70
2018-03-23T05:32:14.094Z,25.20
2018-03-23T05:33:13.883Z,24.30
2018-03-23T05:35:07.046Z,25.20
2018-03-23T05:36:06.838Z,24.60
2018-03-23T05:38:00.008Z,23.90
2018-03-23T05:38:59.817Z,24.20
2018-03-23T05:40:52.956Z,25.60
2018-03-23T05:41:52.749Z,23.50
2018-03-23T05:43:45.916Z,23.90
2018-03-23T05:44:45.703Z,23.90
2018-03-23T05:46:38.704Z,24.20
2018-03-23T05:47:38.849Z,24.80
2018-03-23T05:49:31.824Z,24.00
2018-03-23T05:50:31.614Z,24.80
2018-03-23T05:52:24.781Z,23.20
2018-03-23T05:53:24.571Z,23.40
2018-03-23T05:55:17.741Z,23.40
2018-03-23T05:56:17.524Z,23.30
2018-03-23T05:58:10.688Z,23.00
2018-03-23T05:59:10.479Z,23.00
2018-03-23T06:01:03.644Z,22.70
2018-03-23T06:02:03.436Z,22.70
2018-03-23T06:03:56.602Z,22.90
2018-03-23T06:04:56.392Z,23.00
2018-03-23T06:06:49.556Z,22.40
2018-03-23T06:07:49.345Z,22.60
2018-03-23T06:09:42.406Z,22.50
2018-03-23T06:10:42.325Z,22.40
2018-03-23T06:12:35.371Z,22.70
2018-03-23T06:13:35.257Z,22.30
2018-03-23T06:15:28.324Z,22.30
2018-03-23T06:16:28.211Z,21.70
2018-03-23T06:18:21.271Z,21.80
2018-03-23T06:19:21.168Z,22.40
2018-03-23T06:21:14.127Z,22.00
2018-03-23T06:22:14.027Z,22.00
2018-03-23T06:24:06.979Z,22.20
2018-03-23T06:25:06.896Z,21.60
2018-03-23T06:26:59.836Z,22.40
2018-03-23T06:27:59.737Z,21.20
2018-03-23T06:29:52.688Z,21.70
2018-03-23T06:30:52.589Z,21.30
2018-03-23T06:32:45.541Z,21.10
2018-03-23T06:33:45.440Z,21.00
2018-03-23T06:35:38.395Z,20.70
2018-03-23T06:36:38.290Z,20.10
2018-03-23T06:38:31.247Z,20.90
2018-03-23T06:39:31.143Z,20.60
2018-03-23T06:41:24.110Z,20.20
2018-03-23T06:42:23.996Z,20.70
2018-03-23T06:44:16.954Z,19.90
2018-03-23T06:45:16.848Z,19.60
2018-03-23T06:47:09.877Z,20.30
2018-03-23T06:48:09.702Z,19.90
2018-03-23T06:50:02.656Z,19.70
2018-03-23T06:51:02.555Z,19.10
2018-03-23T06:52:55.513Z,19.70
2018-03-23T06:53:55.409Z,19.40
2018-03-23T06:55:48.491Z,19.60
2018-03-23T06:56:48.360Z,19.20
2018-03-23T06:58:41.258Z,19.40
2018-03-23T06:59:41.216Z,19.30
2018-03-23T07:01:34.283Z,18.60
2018-03-23T07:02:34.174Z,19.40
2018-03-23T07:04:27.229Z,19.60
2018-03-23T07:05:27.126Z,19.40
2018-03-23T07:07:20.184Z,18.70
2018-03-23T07:08:20.083Z,19.60
2018-03-23T07:10:14.167Z,19.40
2018-03-23T07:11:13.972Z,19.80
2018-03-23T07:13:07.118Z,19.70
2018-03-23T07:14:06.921Z,20.00
2018-03-23T07:16:00.077Z,19.90
2018-03-23T07:16:59.873Z,20.10
2018-03-23T07:18:53.033Z,21.40
2018-03-23T07:19:52.825Z,20.90
2018-03-23T07:21:45.983Z,20.90
2018-03-23T07:22:45.767Z,21.20
2018-03-23T07:24:38.941Z,21.30
2018-03-23T07:25:38.765Z,21.40
2018-03-23T07:27:31.894Z,21.50
2018-03-23T07:28:31.690Z,21.40
2018-03-23T07:30:24.862Z,21.00
2018-03-23T07:31:24.641Z,21.50
2018-03-23T07:33:17.831Z,22.10
2018-03-23T07:34:17.599Z,22.10
2018-03-23T07:36:10.763Z,21.60
2018-03-23T07:37:10.552Z,21.40
2018-03-23T07:39:03.724Z,24.50
2018-03-23T07:40:03.508Z,24.00
2018-03-23T07:41:56.673Z,21.50
2018-03-23T07:42:56.466Z,22.40
2018-03-23T07:44:49.626Z,19.90
2018-03-23T07:45:49.417Z,19.70
2018-03-23T07:47:42.581Z,20.10
2018-03-23T07:48:42.382Z,19.30
2018-03-23T07:50:35.536Z,20.30
2018-03-23T07:51:35.334Z,19.70
2018-03-23T07:53:28.497Z,18.90
2018-03-23T07:54:28.302Z,18.00
2018-03-23T07:56:21.448Z,19.60
2018-03-23T07:57:21.243Z,19.10
2018-03-23T07:59:14.408Z,20.20
2018-03-23T08:00:14.200Z,19.90
2018-03-23T08:02:07.359Z,19.50
2018-03-23T08:03:07.152Z,19.80
2018-03-23T08:05:00.315Z,18.70
2018-03-23T08:06:00.108Z,20.20
2018-03-23T08:07:53.278Z,19.30
2018-03-23T08:08:53.061Z,19.00
2018-03-23T08:10:46.226Z,17.80
2018-03-23T08:11:46.018Z,18.20
2018-03-23T08:13:39.120Z,19.20
2018-03-23T08:14:38.897Z,18.60
2018-03-23T08:16:32.045Z,18.70
2018-03-23T08:17:31.827Z,18.00
2018-03-23T08:19:24.989Z,18.80
2018-03-23T08:20:24.781Z,18.60
2018-03-23T08:22:17.951Z,18.00
2018-03-23T08:23:17.736Z,17.10
2018-03-23T08:25:10.797Z,17.60
2018-03-23T08:26:10.695Z,17.10
2018-03-23T08:28:03.741Z,17.00
2018-03-23T08:29:03.650Z,17.50
2018-03-23T08:30:56.550Z,16.20
2018-03-23T08:31:56.507Z,17.20
2018-03-23T08:33:49.459Z,16.60
2018-03-23T08:34:49.362Z,17.20
2018-03-23T08:36:42.257Z,16.70
2018-03-23T08:37:42.295Z,17.30
2018-03-23T08:39:35.166Z,15.40
2018-03-23T08:40:35.069Z,15.20
2018-03-23T08:42:28.014Z,16.10
2018-03-23T08:43:27.917Z,16.30
2018-03-23T08:45:20.892Z,16.20
2018-03-23T08:46:20.771Z,16.30
2018-03-23T08:48:13.721Z,15.30
2018-03-23T08:49:13.625Z,15.20
2018-03-23T08:51:06.576Z,15.10
2018-03-23T08:52:06.478Z,15.20
2018-03-23T08:53:59.430Z,15.60
2018-03-23T08:54:59.329Z,16.10
2018-03-23T08:56:52.284Z,16.40
2018-03-23T08:57:52.183Z,15.40
2018-03-23T08:59:45.066Z,15.50
2018-03-23T09:00:45.032Z,15.20
2018-03-23T09:02:37.983Z,14.80
2018-03-23T09:03:37.886Z,15.30
2018-03-23T09:05:30.840Z,15.70
2018-03-23T09:06:30.750Z,15.50
2018-03-23T09:08:23.694Z,15.80
2018-03-23T09:09:23.594Z,14.90
2018-03-23T09:11:16.543Z,15.10
2018-03-23T09:12:16.445Z,16.60
2018-03-23T09:14:09.403Z,15.90
2018-03-23T09:15:09.297Z,15.50
2018-03-23T09:17:02.257Z,15.80
2018-03-23T09:18:02.150Z,15.90
2018-03-23T09:19:55.109Z,16.00
2018-03-23T09:20:55.012Z,16.00
2018-03-23T09:22:47.963Z,16.50
2018-03-23T09:23:47.862Z,15.50
2018-03-23T09:25:40.842Z,16.10
2018-03-23T09:26:40.710Z,16.20
2018-03-23T09:28:33.664Z,16.00
2018-03-23T09:29:33.563Z,16.30
2018-03-23T09:33:23.196Z,16.50
2018-03-23T09:33:58.169Z,15.80
2018-03-23T09:35:51.119Z,15.60
2018-03-23T09:36:51.024Z,16.00
2018-03-23T09:38:43.972Z,15.80
2018-03-23T09:39:43.873Z,15.20
2018-03-23T09:41:36.828Z,15.80
2018-03-23T09:42:36.728Z,15.90
2018-03-23T09:44:29.679Z,16.00
2018-03-23T09:45:29.572Z,16.50
2018-03-23T09:47:22.534Z,16.20
2018-03-23T09:48:22.431Z,16.70
2018-03-23T09:50:15.378Z,16.70
2018-03-23T09:51:15.285Z,16.80
2018-03-23T09:53:08.240Z,17.20
2018-03-23T09:54:08.136Z,16.90
2018-03-23T09:56:01.098Z,16.60
2018-03-23T09:57:00.994Z,16.50
2018-03-23T09:58:53.943Z,16.60
2018-03-23T09:59:53.842Z,16.50
2018-03-23T10:01:46.795Z,16.20
2018-03-23T10:02:46.696Z,16.30
2018-03-23T10:04:39.654Z,16.00
2018-03-23T10:05:39.551Z,15.80
2018-03-23T10:07:32.505Z,16.30
2018-03-23T10:08:32.404Z,16.00
2018-03-23T10:10:25.355Z,17.00
2018-03-23T10:11:25.261Z,16.40
2018-03-23T10:13:18.270Z,14.30
2018-03-23T10:14:18.108Z,15.00
2018-03-23T10:16:11.066Z,14.70
2018-03-23T10:17:10.966Z,14.50
2018-03-23T10:19:03.924Z,14.80
2018-03-23T10:20:03.819Z,14.60
2018-03-23T10:21:56.784Z,13.20
2018-03-23T10:22:56.672Z,13.30
2018-03-23T10:24:49.620Z,12.50
2018-03-23T10:25:49.522Z,12.90
2018-03-23T10:27:42.474Z,11.60
2018-03-23T10:28:42.377Z,12.70
2018-03-23T10:30:35.326Z,12.30
2018-03-23T10:31:35.228Z,12.00
2018-03-23T10:33:28.178Z,11.40
2018-03-23T10:34:28.092Z,11.60
2018-03-23T10:36:21.031Z,12.00
2018-03-23T10:37:20.937Z,12.20
2018-03-23T10:39:13.896Z,12.10
2018-03-23T10:40:13.786Z,11.20
2018-03-23T10:42:06.741Z,11.70
2018-03-23T10:43:06.639Z,11.30
2018-03-23T10:44:59.594Z,11.70
2018-03-23T10:45:59.492Z,11.80
2018-03-23T10:47:52.447Z,11.60
2018-03-23T10:48:52.348Z,11.50
2018-03-23T10:50:45.297Z,12.90
2018-03-23T10:51:45.197Z,12.90
2018-03-23T10:53:38.159Z,13.10
2018-03-23T10:54:38.058Z,12.60
2018-03-23T10:56:31.012Z,13.20
2018-03-23T10:57:30.914Z,12.10
2018-03-23T10:59:23.865Z,12.80
2018-03-23T11:00:23.762Z,12.30
2018-03-23T11:02:16.645Z,12.70
2018-03-23T11:03:16.620Z,12.60
2018-03-23T11:05:09.572Z,12.40
2018-03-23T11:06:09.530Z,12.40
2018-03-23T11:08:02.423Z,12.40
2018-03-23T11:09:02.323Z,12.00
2018-03-23T11:10:55.274Z,12.70
2018-03-23T11:11:55.174Z,12.40
2018-03-23T11:13:48.128Z,11.70
2018-03-23T11:14:48.025Z,11.70
2018-03-23T11:16:40.981Z,12.40
2018-03-23T11:17:40.889Z,11.80
2018-03-23T11:19:33.834Z,11.90
2018-03-23T11:20:33.737Z,11.80
2018-03-23T11:22:26.688Z,11.30
2018-03-23T11:23:26.596Z,11.60
2018-03-23T11:25:19.538Z,10.80
2018-03-23T11:26:19.444Z,11.60
2018-03-23T11:28:12.397Z,11.60
2018-03-23T11:29:12.293Z,11.50
2018-03-23T11:31:05.244Z,11.70
2018-03-23T11:32:05.144Z,11.90
2018-03-23T11:33:58.098Z,11.80
2018-03-23T11:34:58.002Z,10.70
2018-03-23T11:36:50.952Z,11.40
2018-03-23T11:37:50.852Z,10.40
2018-03-23T11:39:43.807Z,10.30
2018-03-23T11:40:43.709Z,10.30
2018-03-23T11:42:36.660Z,9.90
2018-03-23T11:43:36.558Z,9.60
2018-03-23T11:45:29.511Z,9.30
2018-03-23T11:46:29.412Z,9.30
2018-03-23T11:48:22.366Z,8.90
2018-03-23T11:49:22.265Z,8.90
2018-03-23T11:51:15.216Z,8.90
2018-03-23T11:52:15.113Z,8.70
2018-03-23T11:54:08.069Z,8.20
2018-03-23T11:55:07.977Z,8.20
2018-03-23T11:57:00.922Z,9.20
2018-03-23T11:58:00.820Z,9.20
2018-03-23T11:59:53.983Z,9.60
2018-03-23T12:00:53.775Z,9.30
2018-03-23T12:02:46.939Z,9.40
2018-03-23T12:03:46.737Z,9.20
2018-03-23T12:05:39.688Z,9.30
2018-03-23T12:06:39.589Z,9.70
2018-03-23T12:08:32.747Z,9.20
2018-03-23T12:09:32.537Z,9.50
2018-03-23T12:11:25.598Z,9.50
2018-03-23T12:12:25.396Z,9.40
2018-03-23T12:14:18.498Z,9.00
2018-03-23T12:15:18.348Z,9.30
2018-03-23T12:17:11.507Z,9.80
2018-03-23T12:18:11.306Z,9.40
2018-03-23T12:20:04.266Z,10.00
2018-03-23T12:21:04.157Z,8.80
2018-03-23T12:22:57.628Z,10.00
2018-03-23T12:23:57.515Z,9.90
2018-03-23T12:25:50.687Z,10.40
2018-03-23T12:26:50.477Z,9.50
2018-03-23T12:28:43.641Z,9.20
2018-03-23T12:29:43.431Z,10.00
2018-03-23T12:31:36.595Z,9.60
2018-03-23T12:32:36.385Z,9.60
2018-03-23T12:34:29.547Z,9.80
2018-03-23T12:35:29.332Z,9.70
2018-03-23T12:37:22.508Z,9.40
2018-03-23T12:38:22.299Z,9.10
2018-03-23T12:40:15.469Z,9.90
2018-03-23T12:41:15.249Z,9.60
2018-03-23T12:43:08.414Z,9.90
2018-03-23T12:44:08.206Z,9.70
2018-03-23T12:46:01.266Z,10.20
2018-03-23T12:47:01.155Z,9.70
2018-03-23T12:48:54.223Z,10.10
2018-03-23T12:49:54.113Z,9.80
2018-03-23T12:51:47.179Z,9.70
2018-03-23T12:52:47.072Z,9.80
2018-03-23T12:54:40.030Z,10.20
2018-03-23T12:55:39.929Z,9.90
2018-03-23T12:57:32.886Z,10.70
2018-03-23T12:58:32.783Z,10.40
2018-03-23T13:00:25.741Z,10.70
2018-03-23T13:01:25.645Z,10.00
2018-03-23T13:03:18.530Z,10.50
2018-03-23T13:04:18.490Z,10.40
2018-03-23T13:06:12.467Z,10.60
2018-03-23T13:07:11.341Z,10.50
2018-03-23T13:09:04.298Z,10.80
2018-03-23T13:10:04.191Z,10.70
2018-03-23T13:11:57.134Z,11.10
2018-03-23T13:12:57.049Z,11.10
2018-03-23T13:14:50.023Z,11.20
2018-03-23T13:15:49.904Z,12.00
2018-03-23T13:17:42.852Z,12.10
2018-03-23T13:18:42.750Z,11.70
2018-03-23T13:20:35.813Z,12.20
2018-03-23T13:21:35.709Z,12.80
2018-03-23T13:23:28.668Z,12.60
2018-03-23T13:24:28.561Z,13.40
2018-03-23T13:26:21.620Z,12.80
2018-03-23T13:27:21.513Z,13.30
2018-03-23T13:29:14.473Z,13.70
2018-03-23T13:30:14.394Z,14.90
2018-03-23T13:32:07.430Z,14.50
2018-03-23T13:33:07.323Z,14.60
2018-03-23T13:35:00.377Z,15.20
2018-03-23T13:36:00.277Z,14.90
2018-03-23T13:37:53.345Z,15.30
2018-03-23T13:38:53.234Z,14.60
2018-03-23T13:40:46.394Z,15.30
2018-03-23T13:41:46.191Z,15.30
2018-03-23T13:43:39.353Z,15.00
2018-03-23T13:44:39.203Z,15.20
2018-03-23T13:46:32.114Z,16.00
2018-03-23T13:47:32.005Z,16.60
2018-03-23T13:49:24.957Z,17.20
2018-03-23T13:50:24.937Z,17.10
2018-03-23T13:52:17.806Z,16.70
2018-03-23T13:53:17.707Z,18.10
2018-03-23T13:55:10.659Z,17.40
2018-03-23T13:56:10.582Z,17.20
2018-03-23T13:58:04.572Z,18.20
2018-03-23T13:59:03.410Z,18.40
2018-03-23T14:00:57.395Z,18.40
2018-03-23T14:01:56.268Z,17.90
2018-03-23T14:03:49.222Z,17.70
2018-03-23T14:04:49.116Z,17.90
2018-03-23T14:06:42.075Z,18.50
2018-03-23T14:07:41.969Z,18.50
2018-03-23T14:09:34.928Z,18.80
2018-03-23T14:10:34.824Z,18.20
2018-03-23T14:12:27.780Z,18.60
2018-03-23T14:13:27.676Z,18.10
2018-03-23T14:15:20.636Z,18.80
2018-03-23T14:16:20.529Z,19.40
2018-03-23T14:18:13.486Z,18.70
2018-03-23T14:19:13.388Z,18.90
2018-03-23T14:21:06.337Z,19.10
2018-03-23T14:22:06.234Z,18.20
2018-03-23T14:23:59.189Z,19.10
2018-03-23T14:24:59.097Z,18.70
2018-03-23T14:26:52.043Z,17.70
2018-03-23T14:27:51.942Z,17.20
2018-03-23T14:29:44.896Z,19.00
2018-03-23T14:30:44.793Z,18.90
2018-03-23T14:32:37.750Z,18.70
2018-03-23T14:33:37.646Z,17.60
2018-03-23T14:35:30.602Z,18.10
2018-03-23T14:36:30.497Z,17.90
2018-03-23T14:38:23.454Z,17.40
2018-03-23T14:39:23.357Z,17.50
2018-03-23T14:41:16.360Z,16.70
2018-03-23T14:42:16.209Z,16.70
2018-03-23T14:44:09.161Z,16.40
2018-03-23T14:45:09.062Z,17.30
2018-03-23T14:47:02.611Z,17.00
2018-03-23T14:48:01.914Z,16.60
2018-03-23T14:49:54.881Z,17.40
2018-03-23T14:50:54.768Z,17.60
2018-03-23T14:52:47.660Z,17.90
2018-03-23T14:53:47.617Z,17.80
2018-03-23T14:55:40.574Z,17.70
2018-03-23T14:56:40.472Z,18.80
2018-03-23T14:58:33.424Z,17.60
2018-03-23T14:59:33.326Z,17.30
2018-03-23T15:01:26.278Z,17.70
2018-03-23T15:02:26.194Z,18.50
2018-03-23T15:04:19.065Z,18.20
2018-03-23T15:05:19.031Z,16.80
2018-03-23T15:07:12.013Z,17.80
2018-03-23T15:08:11.887Z,18.00
2018-03-23T15:10:04.837Z,17.00
2018-03-23T15:11:04.741Z,17.60
2018-03-23T15:12:57.691Z,17.30
2018-03-23T15:13:57.595Z,18.20
2018-03-23T15:15:50.545Z,17.70
2018-03-23T15:16:50.442Z,17.30
2018-03-23T15:18:43.400Z,17.20
2018-03-23T15:19:43.306Z,16.80
2018-03-23T15:21:36.252Z,17.60
2018-03-23T15:22:36.151Z,17.70
2018-03-23T15:24:29.106Z,18.00
2018-03-23T15:25:29.003Z,16.10
2018-03-23T15:27:21.958Z,17.50
2018-03-23T15:28:21.863Z,17.10
2018-03-23T15:30:14.825Z,16.80
2018-03-23T15:31:14.712Z,15.60
2018-03-23T15:33:07.659Z,16.00
2018-03-23T15:34:07.561Z,16.50
2018-03-23T15:36:00.473Z,15.40
2018-03-23T15:37:00.429Z,15.20
2018-03-23T15:38:53.365Z,16.00
2018-03-23T15:39:53.273Z,14.90
2018-03-23T15:41:46.222Z,16.30
2018-03-23T15:42:46.118Z,15.50
2018-03-23T15:44:39.071Z,15.80
2018-03-23T15:45:38.972Z,14.90
2018-03-23T15:47:31.924Z,15.20
2018-03-23T15:48:31.826Z,15.50
2018-03-23T15:50:24.779Z,15.00
2018-03-23T15:51:24.684Z,15.40
2018-03-23T15:53:18.659Z,15.20
2018-03-23T15:54:17.533Z,14.90
2018-03-23T15:56:10.483Z,16.30
2018-03-23T15:57:10.374Z,16.50
2018-03-23T15:59:03.347Z,15.50
2018-03-23T16:00:03.241Z,16.30
2018-03-23T16:01:56.211Z,16.10
2018-03-23T16:02:56.092Z,16.10
2018-03-23T16:04:49.067Z,15.10
2018-03-23T16:05:48.944Z,15.00
2018-03-23T16:07:41.900Z,15.40
2018-03-23T16:08:41.797Z,15.30
2018-03-23T16:10:34.757Z,15.90
2018-03-23T16:11:34.648Z,16.20
2018-03-23T16:13:27.711Z,17.70
2018-03-23T16:14:27.510Z,14.90
2018-03-23T16:16:20.561Z,16.40
2018-03-23T16:17:20.456Z,15.00
2018-03-23T16:19:13.757Z,14.50
2018-03-23T16:20:13.722Z,15.20
2018-03-23T16:22:06.880Z,14.10
2018-03-23T16:23:06.679Z,14.30
2018-03-23T16:24:59.634Z,13.60
2018-03-23T16:25:59.530Z,14.00
2018-03-23T16:27:52.588Z,13.30
2018-03-23T16:28:52.481Z,13.90
2018-03-23T16:30:45.544Z,14.20
2018-03-23T16:31:45.339Z,14.20
2018-03-23T16:33:38.395Z,14.50
2018-03-23T16:34:38.199Z,14.90
2018-03-23T16:36:31.196Z,13.20
2018-03-23T16:37:31.047Z,13.80
2018-03-23T16:39:24.001Z,13.50
2018-03-23T16:40:23.906Z,14.70
2018-03-23T16:42:16.856Z,15.10
2018-03-23T16:43:16.753Z,15.20
2018-03-23T16:45:09.917Z,14.40
2018-03-23T16:46:09.705Z,14.40
2018-03-23T16:48:02.866Z,15.50
2018-03-23T16:49:02.661Z,15.60
2018-03-23T16:50:55.712Z,14.70
2018-03-23T16:51:55.621Z,13.20
2018-03-23T16:53:48.573Z,13.60
2018-03-23T16:54:48.473Z,13.10
2018-03-23T16:56:41.425Z,13.20
2018-03-23T16:57:41.325Z,15.00
2018-03-23T16:59:34.277Z,12.50
2018-03-23T17:00:34.181Z,12.80
2018-03-23T17:02:27.130Z,13.20
2018-03-23T17:03:27.032Z,13.20
2018-03-23T17:05:19.984Z,12.80
2018-03-23T17:06:19.883Z,13.10
2018-03-23T17:08:12.943Z,12.80
2018-03-23T17:09:12.857Z,12.50
2018-03-23T17:11:05.790Z,13.00
2018-03-23T17:12:05.688Z,13.10
2018-03-23T17:13:58.643Z,12.90
2018-03-23T17:14:58.545Z,12.30
2018-03-23T17:16:51.502Z,13.40
2018-03-23T17:17:51.398Z,12.60
2018-03-23T17:19:44.354Z,13.30
2018-03-23T17:20:44.267Z,12.60
2018-03-23T17:22:37.216Z,13.00
2018-03-23T17:23:37.102Z,13.70
2018-03-23T17:25:30.060Z,13.60
2018-03-23T17:26:29.957Z,13.10
2018-03-23T17:28:22.925Z,12.70
2018-03-23T17:29:22.823Z,12.80
2018-03-23T17:31:15.772Z,12.80
2018-03-23T17:32:15.664Z,13.10
2018-03-23T17:34:08.628Z,12.50
2018-03-23T17:35:08.515Z,12.40
2018-03-23T17:37:01.476Z,13.40
2018-03-23T17:38:01.367Z,13.80
2018-03-23T17:39:54.264Z,13.20
2018-03-23T17:40:54.312Z,12.90
2018-03-23T17:42:47.174Z,12.80
2018-03-23T17:43:47.073Z,12.30
2018-03-23T17:45:40.032Z,12.90
2018-03-23T17:46:39.926Z,13.10
2018-03-23T17:48:32.824Z,13.20
2018-03-23T17:49:32.791Z,13.70
2018-03-23T17:51:25.841Z,14.20
2018-03-23T17:52:25.773Z,14.70
2018-03-23T17:54:18.792Z,13.90
2018-03-23T17:55:18.648Z,13.30
2018-03-23T17:57:11.550Z,13.70
2018-03-23T17:58:11.452Z,13.80
2018-03-23T18:00:04.604Z,13.30
2018-03-23T18:01:04.482Z,13.60
2018-03-23T18:02:57.354Z,13.50
2018-03-23T18:03:57.257Z,13.90
2018-03-23T18:05:50.205Z,13.30
2018-03-23T18:06:50.105Z,14.40
2018-03-23T18:08:43.057Z,13.00
2018-03-23T18:09:42.956Z,14.20
2018-03-23T18:11:35.914Z,13.90
2018-03-23T18:12:35.821Z,13.50
2018-03-23T18:14:28.767Z,13.20
2018-03-23T18:15:28.666Z,12.90
2018-03-23T18:17:21.615Z,14.60
2018-03-23T18:18:21.536Z,14.40
2018-03-23T18:20:14.470Z,14.00
2018-03-23T18:21:14.372Z,14.80
2018-03-23T18:23:07.326Z,13.50
2018-03-23T18:24:07.238Z,12.50
2018-03-23T18:26:00.177Z,12.70
2018-03-23T18:27:00.080Z,13.20
2018-03-23T18:28:53.029Z,13.60
2018-03-23T18:29:52.933Z,13.50
2018-03-23T18:31:45.880Z,15.80
2018-03-23T18:32:45.781Z,14.30
2018-03-23T18:34:38.735Z,13.40
2018-03-23T18:35:38.635Z,13.70
2018-03-23T18:37:31.529Z,13.70